createdAt,value
2018-04-19T00:02:13.729Z,93.20
2018-04-19T00:04:45.704Z,93.30
2018-04-19T00:07:16.923Z,93.30
2018-04-19T00:09:47.859Z,93.40
2018-04-19T00:12:18.767Z,93.20
2018-04-19T00:14:49.628Z,93.20
2018-04-19T00:17:20.589Z,93.10
2018-04-19T00:19:51.186Z,92.70
2018-04-19T00:22:22.512Z,92.90
2018-04-19T00:24:53.664Z,92.70
2018-04-19T00:27:26.236Z,92.50
2018-04-19T00:29:57.206Z,92.50
2018-04-19T00:32:28.110Z,92.60
2018-04-19T00:34:58.904Z,92.70
2018-04-19T00:37:31.150Z,92.70
2018-04-19T00:40:03.267Z,92.90
2018-04-19T00:42:34.466Z,92.80
2018-04-19T00:45:06.315Z,93.10
2018-04-19T00:47:37.377Z,93.10
2018-04-19T00:50:08.260Z,93.00
2018-04-19T00:55:46.752Z,92.80
2018-04-19T00:58:17.763Z,93.10
2018-04-19T01:00:49.450Z,92.90
2018-04-19T01:03:20.307Z,92.90
2018-04-19T01:05:51.351Z,93.10
2018-04-19T01:08:22.228Z,93.50
2018-04-19T01:10:53.339Z,93.50
2018-04-19T01:13:24.302Z,93.50
2018-04-19T01:15:56.847Z,93.40
2018-04-19T01:18:28.128Z,93.40
2018-04-19T01:20:59.118Z,93.30
2018-04-19T01:23:30.104Z,93.20
2018-04-19T01:26:01.117Z,93.50
2018-04-19T01:28:32.311Z,93.70
2018-04-19T01:31:03.905Z,93.90
2018-04-19T01:33:36.520Z,93.90
2018-04-19T01:36:17.019Z,93.70
2018-04-19T01:38:48.823Z,94.10
2018-04-19T01:41:19.611Z,94.10
2018-04-19T01:43:50.932Z,94.20
2018-04-19T01:46:22.785Z,94.00
2018-04-19T01:48:53.576Z,94.00
2018-04-19T01:51:24.522Z,94.20
2018-04-19T01:53:55.693Z,94.50
2018-04-19T01:56:26.827Z,94.10
2018-04-19T01:58:57.591Z,93.90
2018-04-19T02:01:28.503Z,94.20
2018-04-19T02:03:59.561Z,94.20
2018-04-19T02:06:30.532Z,94.50
2018-04-19T02:09:01.374Z,94.50
2018-04-19T02:11:32.338Z,94.30
2018-04-19T02:14:03.454Z,94.10
2018-04-19T02:16:34.495Z,93.90
2018-04-19T02:19:05.810Z,94.00
2018-04-19T02:21:36.817Z,93.80
2018-04-19T02:24:07.898Z,94.20
2018-04-19T02:26:39.811Z,94.10
2018-04-19T02:29:10.586Z,94.10
2018-04-19T02:31:41.250Z,94.30
2018-04-19T02:34:12.385Z,94.30
2018-04-19T02:36:43.363Z,94.20
2018-04-19T02:39:14.921Z,94.30
2018-04-19T02:41:46.015Z,94.20
2018-04-19T02:44:17.140Z,94.10
2018-04-19T02:46:48.251Z,94.00
2018-04-19T02:49:19.108Z,94.10
2018-04-19T02:51:52.272Z,93.90
2018-04-19T02:54:23.596Z,93.90
2018-04-19T02:56:54.692Z,94.00
2018-04-19T02:59:25.755Z,94.10
2018-04-19T03:01:57.472Z,93.70
2018-04-19T03:04:28.766Z,93.70
2018-04-19T03:06:59.749Z,93.70
2018-04-19T03:09:30.905Z,94.00
2018-04-19T03:12:01.918Z,93.90
2018-04-19T03:14:33.022Z,93.90
2018-04-19T03:17:04.670Z,94.00
2018-04-19T03:19:35.717Z,94.00
2018-04-19T03:22:07.913Z,93.80
2018-04-19T03:24:39.135Z,93.80
2018-04-19T03:27:10.038Z,93.70
2018-04-19T03:29:40.900Z,93.80
2018-04-19T03:32:13.000Z,93.70
2018-04-19T03:34:44.141Z,93.70
2018-04-19T03:37:14.819Z,93.60
2018-04-19T03:39:46.032Z,93.30
2018-04-19T03:42:17.021Z,93.50
2018-04-19T03:44:47.955Z,93.50
2018-04-19T03:47:19.078Z,93.30
2018-04-19T03:49:50.238Z,93.10
2018-04-19T03:52:22.173Z,92.70
2018-04-19T03:54:53.740Z,92.70
2018-04-19T03:57:24.608Z,92.60
2018-04-19T03:59:55.770Z,92.80
2018-04-19T04:02:26.472Z,92.90
2018-04-19T04:04:57.700Z,92.50
2018-04-19T04:07:29.515Z,91.80
2018-04-19T04:10:00.573Z,91.70
2018-04-19T04:12:31.945Z,92.10
2018-04-19T04:15:03.067Z,91.60
2018-04-19T04:17:43.931Z,91.60
2018-04-19T04:20:24.946Z,91.60
2018-04-19T04:23:05.674Z,91.40
2018-04-19T04:25:36.830Z,91.40
2018-04-19T04:28:07.936Z,90.90
2018-04-19T04:30:38.861Z,90.90
2018-04-19T04:33:09.699Z,91.20
2018-04-19T04:35:40.855Z,90.60
2018-04-19T04:38:11.529Z,90.80
2018-04-19T04:40:42.750Z,90.60
2018-04-19T04:43:13.987Z,90.20
2018-04-19T04:45:45.168Z,90.00
2018-04-19T04:48:16.691Z,89.10
2018-04-19T04:50:47.388Z,89.50
2018-04-19T04:53:19.209Z,88.40
2018-04-19T04:55:51.601Z,87.70
2018-04-19T04:58:22.829Z,87.70
2018-04-19T05:00:54.197Z,87.00
2018-04-19T05:03:26.151Z,86.50
2018-04-19T05:05:58.003Z,80.10
2018-04-19T05:08:29.478Z,80.00
2018-04-19T05:11:01.272Z,63.90
2018-04-19T05:13:32.533Z,63.70
2018-04-19T05:16:03.543Z,58.30
2018-04-19T05:18:34.703Z,54.60
2018-04-19T05:21:06.169Z,50.80
2018-04-19T05:23:37.568Z,47.50
2018-04-19T05:26:08.689Z,49.40
2018-04-19T05:28:39.729Z,52.60
2018-04-19T05:31:10.973Z,54.70
2018-04-19T05:33:42.423Z,57.30
2018-04-19T05:36:13.748Z,58.40
2018-04-19T05:38:44.790Z,61.90
2018-04-19T05:41:15.759Z,63.60
2018-04-19T05:43:46.721Z,65.80
2018-04-19T05:46:19.573Z,69.40
2018-04-19T05:48:50.497Z,69.90
2018-04-19T05:51:21.273Z,69.50
2018-04-19T05:53:52.343Z,70.80
2018-04-19T05:56:23.935Z,70.00
2018-04-19T05:58:55.109Z,69.10
2018-04-19T06:01:28.026Z,69.40
2018-04-19T06:03:58.665Z,68.40
2018-04-19T06:06:29.613Z,60.30
2018-04-19T06:09:00.701Z,51.80
2018-04-19T06:11:32.436Z,42.80
2018-04-19T06:14:04.072Z,39.70
2018-04-19T06:16:35.714Z,35.00
2018-04-19T06:19:06.463Z,33.00
2018-04-19T06:21:37.739Z,30.90
2018-04-19T06:24:09.271Z,28.80
2018-04-19T06:26:40.823Z,27.10
2018-04-19T06:29:10.239Z,28.80
2018-04-19T06:31:41.556Z,26.70
2018-04-19T06:34:13.012Z,25.90
2018-04-19T06:36:44.431Z,25.10
2018-04-19T06:39:15.583Z,25.90
2018-04-19T06:41:47.047Z,25.70
2018-04-19T06:44:18.020Z,26.90
2018-04-19T06:46:51.360Z,27.60
2018-04-19T06:49:22.445Z,27.60
2018-04-19T06:51:53.961Z,27.70
2018-04-19T06:54:25.197Z,28.70
2018-04-19T06:56:56.647Z,28.90
2018-04-19T06:59:27.683Z,29.10
2018-04-19T07:01:59.019Z,29.90
2018-04-19T07:04:30.393Z,29.60
2018-04-19T07:07:03.057Z,31.40
2018-04-19T07:12:18.494Z,44.20
2018-04-19T07:14:48.177Z,45.00
2018-04-19T08:21:24.773Z,44.20
2018-04-19T08:23:55.893Z,45.30
2018-04-19T08:26:27.285Z,44.40
2018-04-19T08:28:58.620Z,44.10
2018-04-19T08:31:29.933Z,44.10
2018-04-19T08:34:01.125Z,44.20
2018-04-19T08:36:33.733Z,44.00
2018-04-19T08:39:05.169Z,43.80
2018-04-19T08:41:36.542Z,43.70
2018-04-19T08:44:07.731Z,43.60
2018-04-19T08:46:38.946Z,43.50
2018-04-19T08:49:11.089Z,43.50
2018-04-19T08:51:43.061Z,43.30
2018-04-19T08:54:15.153Z,43.30
2018-04-19T08:56:46.486Z,43.30
2018-04-19T08:59:17.968Z,43.40
2018-04-19T09:01:49.164Z,43.50
2018-04-19T09:04:20.182Z,43.60
2018-04-19T09:06:51.458Z,43.50
2018-04-19T09:09:22.446Z,43.40
2018-04-19T09:11:53.918Z,43.20
2018-04-19T09:14:25.250Z,42.90
2018-04-19T09:16:58.297Z,42.80
2018-04-19T09:19:29.433Z,42.20
2018-04-19T09:22:00.783Z,42.10
2018-04-19T09:24:31.649Z,42.00
2018-04-19T09:27:02.898Z,41.90
2018-04-19T09:29:35.017Z,41.90
2018-04-19T09:32:06.487Z,42.00
2018-04-19T09:34:37.888Z,42.00
2018-04-19T09:37:08.813Z,42.10
2018-04-19T09:39:40.067Z,42.20
2018-04-19T09:42:11.497Z,42.10
2018-04-19T09:44:42.505Z,41.90
2018-04-19T09:47:13.644Z,41.90
2018-04-19T09:49:45.255Z,41.80
2018-04-19T09:52:16.421Z,41.80
2018-04-19T09:54:48.880Z,41.60
2018-04-19T09:57:20.133Z,41.60
2018-04-19T09:59:51.005Z,41.50
2018-04-19T10:02:27.390Z,41.50
2018-04-19T10:05:09.164Z,41.40
2018-04-19T10:07:40.139Z,41.50
2018-04-19T10:10:11.273Z,41.70
2018-04-19T10:12:42.527Z,41.70
2018-04-19T10:15:13.567Z,41.70
2018-04-19T10:17:44.934Z,41.90
2018-04-19T10:20:16.777Z,41.80
2018-04-19T10:22:48.324Z,41.80
2018-04-19T10:25:19.845Z,41.90
2018-04-19T10:27:52.124Z,42.30
2018-04-19T10:30:23.069Z,41.70
2018-04-19T10:32:54.913Z,41.70
2018-04-19T10:35:27.317Z,41.70
2018-04-19T10:38:00.110Z,41.70
2018-04-19T10:40:33.010Z,41.70
2018-04-19T10:43:06.127Z,41.50
2018-04-19T10:45:38.313Z,41.60
2018-04-19T10:48:10.730Z,41.80
2018-04-19T10:50:44.049Z,41.70
2018-04-19T10:53:16.451Z,41.70
2018-04-19T10:55:48.958Z,41.70
2018-04-19T10:58:20.930Z,41.80
2018-04-19T11:00:53.020Z,41.70
2018-04-19T11:03:24.790Z,41.50
2018-04-19T11:05:56.294Z,41.40
2018-04-19T11:08:28.647Z,41.10
2018-04-19T11:11:00.867Z,40.90
2018-04-19T11:13:32.842Z,40.80
2018-04-19T11:16:04.004Z,40.60
2018-04-19T11:18:37.024Z,40.50
2018-04-19T11:21:09.560Z,40.40
2018-04-19T11:23:41.528Z,40.40
2018-04-19T11:26:14.945Z,40.40
2018-04-19T11:28:48.063Z,40.10
2018-04-19T11:31:19.637Z,40.30
2018-04-19T11:33:51.831Z,40.30
2018-04-19T11:36:22.871Z,40.30
2018-04-19T11:38:54.063Z,40.30
2018-04-19T11:41:25.600Z,40.30
2018-04-19T11:43:57.424Z,40.30
2018-04-19T11:46:28.932Z,40.20
2018-04-19T11:49:00.716Z,40.20
2018-04-19T11:51:32.172Z,39.90
2018-04-19T11:54:03.635Z,39.60
2018-04-19T11:56:33.565Z,39.10
2018-04-19T11:59:06.074Z,38.40
2018-04-19T12:01:37.669Z,38.40
2018-04-19T12:04:10.376Z,38.60
2018-04-19T12:06:41.533Z,38.50
2018-04-19T12:09:12.811Z,38.70
2018-04-19T12:11:44.861Z,38.70
2018-04-19T12:14:16.579Z,38.10
2018-04-19T12:16:48.214Z,38.30
2018-04-19T12:19:20.883Z,38.10
2018-04-19T12:21:53.233Z,38.00
2018-04-19T12:24:24.148Z,38.00
2018-04-19T12:26:55.722Z,37.80
2018-04-19T12:29:27.952Z,38.20
2018-04-19T12:31:59.578Z,38.20
2018-04-19T12:34:31.329Z,38.30
2018-04-19T12:37:03.731Z,38.40
2018-04-19T12:39:35.816Z,39.30
2018-04-19T12:42:07.318Z,38.70
2018-04-19T12:44:39.237Z,39.00
2018-04-19T12:47:10.711Z,38.90
2018-04-19T12:49:42.251Z,38.90
2018-04-19T12:52:13.836Z,39.00
2018-04-19T12:54:45.049Z,39.00
2018-04-19T12:57:16.367Z,39.00
2018-04-19T12:59:47.967Z,39.00
2018-04-19T13:02:19.141Z,38.90
2018-04-19T13:04:51.122Z,39.00
2018-04-19T13:07:24.453Z,39.00
2018-04-19T13:09:55.798Z,39.10
2018-04-19T13:12:26.925Z,39.20
2018-04-19T13:14:58.296Z,39.20
2018-04-19T13:17:29.541Z,39.30
2018-04-19T13:20:01.033Z,39.50
2018-04-19T13:22:33.338Z,39.60
2018-04-19T13:25:05.688Z,39.50
2018-04-19T13:27:37.172Z,39.60
2018-04-19T13:30:08.242Z,39.50
2018-04-19T13:32:39.652Z,39.50
2018-04-19T13:35:11.580Z,39.40
2018-04-19T13:37:44.286Z,39.50
2018-04-19T13:40:16.487Z,39.70
2018-04-19T13:42:49.726Z,40.00
2018-04-19T13:45:21.353Z,39.40
2018-04-19T13:47:52.666Z,39.40
2018-04-19T13:50:23.907Z,39.30
2018-04-19T13:52:55.683Z,39.20
2018-04-19T13:55:27.319Z,39.20
2018-04-19T13:57:58.778Z,39.20
2018-04-19T14:00:30.201Z,39.30
2018-04-19T14:03:02.151Z,39.30
2018-04-19T14:05:34.175Z,39.40
2018-04-19T14:08:05.859Z,39.50
2018-04-19T14:10:37.695Z,39.60
2018-04-19T14:13:09.438Z,39.70
2018-04-19T14:15:40.806Z,39.80
2018-04-19T14:18:12.851Z,39.80
2018-04-19T14:20:44.491Z,39.90
2018-04-19T14:23:15.506Z,40.00
2018-04-19T14:25:47.511Z,40.10
2018-04-19T14:28:19.439Z,39.90
2018-04-19T14:30:51.959Z,40.70
2018-04-19T14:33:23.433Z,40.20
2018-04-19T14:35:55.636Z,40.30
2018-04-19T14:38:27.124Z,40.40
2018-04-19T14:40:59.804Z,40.70
2018-04-19T14:43:31.335Z,40.40
2018-04-19T14:46:03.109Z,40.60
2018-04-19T14:48:35.180Z,40.50
2018-04-19T14:51:07.002Z,40.50
2018-04-19T14:53:38.911Z,40.60
2018-04-19T14:56:10.258Z,40.60
2018-04-19T14:58:41.715Z,40.60
2018-04-19T15:01:14.029Z,40.60
2018-04-19T15:03:46.199Z,40.60
2018-04-19T15:06:17.625Z,40.70
2018-04-19T15:08:50.182Z,40.70
2018-04-19T15:11:22.252Z,40.80
2018-04-19T15:13:53.597Z,40.70
2018-04-19T15:16:25.489Z,40.80
2018-04-19T15:18:57.384Z,40.80
2018-04-19T15:21:29.284Z,40.80
2018-04-19T15:24:02.047Z,40.90
2018-04-19T15:26:33.837Z,40.90
2018-04-19T15:29:05.982Z,40.90
2018-04-19T15:31:37.554Z,40.90
2018-04-19T15:34:10.142Z,40.90
2018-04-19T15:36:41.550Z,40.90
2018-04-19T15:39:13.199Z,41.00
2018-04-19T15:41:46.751Z,41.00
2018-04-19T15:44:18.683Z,41.00
2018-04-19T15:46:49.720Z,41.00
2018-04-19T15:49:21.216Z,41.00
2018-04-19T15:51:52.825Z,41.00
2018-04-19T15:54:25.111Z,41.10
2018-04-19T15:56:56.489Z,41.10
2018-04-19T15:59:28.071Z,41.10
2018-04-19T16:02:00.098Z,41.20
2018-04-19T16:04:32.974Z,41.10
2018-04-19T16:07:03.836Z,41.10
2018-04-19T16:09:35.500Z,41.10
2018-04-19T16:12:07.597Z,41.10
2018-04-19T16:14:39.228Z,41.20
2018-04-19T16:17:10.673Z,41.20
2018-04-19T16:19:42.101Z,41.20
2018-04-19T16:22:13.713Z,41.20
2018-04-19T16:24:45.141Z,41.20
2018-04-19T16:27:16.490Z,41.20
2018-04-19T16:29:47.924Z,41.30
2018-04-19T16:32:20.177Z,41.90
2018-04-19T16:34:51.783Z,41.30
2018-04-19T16:37:22.914Z,41.40
2018-04-19T16:39:54.142Z,41.40
2018-04-19T16:42:29.261Z,41.50
2018-04-19T16:45:02.169Z,41.30
2018-04-19T16:47:33.268Z,41.40
2018-04-19T16:50:04.649Z,41.40
2018-04-19T16:52:36.587Z,41.40
2018-04-19T16:55:07.746Z,41.40
2018-04-19T16:57:39.207Z,41.40
2018-04-19T17:00:10.643Z,42.00
2018-04-19T17:02:42.252Z,41.40
2018-04-19T17:05:13.783Z,41.40
2018-04-19T17:07:44.768Z,41.50
2018-04-19T17:10:15.843Z,41.50
2018-04-19T17:12:47.050Z,41.50
2018-04-19T17:15:18.793Z,41.60
2018-04-19T17:17:49.973Z,41.60
2018-04-19T17:20:21.637Z,41.60
2018-04-19T17:22:52.994Z,41.60
2018-04-19T17:25:25.449Z,41.60
2018-04-19T17:27:56.569Z,41.60
2018-04-19T17:30:28.963Z,41.60
2018-04-19T17:33:00.912Z,41.70
2018-04-19T17:35:32.340Z,41.70
2018-04-19T17:38:03.723Z,41.60
2018-04-19T17:40:34.751Z,41.70
2018-04-19T17:43:05.950Z,41.60
2018-04-19T17:45:37.303Z,41.70
2018-04-19T17:48:08.660Z,41.60
2018-04-19T17:50:40.375Z,41.60
2018-04-19T17:53:11.645Z,41.70
2018-04-19T17:55:42.615Z,41.70
2018-04-19T17:58:14.143Z,41.70
2018-04-19T18:00:43.678Z,41.70
2018-04-19T18:03:14.876Z,41.70
2018-04-19T18:05:46.203Z,41.70
2018-04-19T18:08:17.749Z,41.70
2018-04-19T18:10:49.027Z,41.70
2018-04-19T18:13:22.176Z,41.80
2018-04-19T18:15:53.871Z,41.60
2018-04-19T18:18:25.109Z,41.80
2018-04-19T18:20:57.223Z,42.40
2018-04-19T18:23:28.217Z,41.80
2018-04-19T18:26:00.401Z,42.00
2018-04-19T18:28:32.513Z,41.80
2018-04-19T18:31:03.897Z,41.80
2018-04-19T18:33:35.073Z,41.80
2018-04-19T18:36:06.274Z,41.80
2018-04-19T18:38:37.150Z,41.90
2018-04-19T18:41:09.015Z,41.90
2018-04-19T18:43:40.544Z,41.90
2018-04-19T18:46:11.541Z,41.90
2018-04-19T18:48:42.520Z,42.00
2018-04-19T18:51:14.640Z,41.90
2018-04-19T18:53:45.745Z,41.90
2018-04-19T18:56:17.124Z,41.90
2018-04-19T18:58:48.330Z,42.00
2018-04-19T19:01:20.374Z,42.00
2018-04-19T19:03:51.749Z,42.00
2018-04-19T19:06:22.807Z,42.00
2018-04-19T19:08:53.996Z,42.00
2018-04-19T19:11:25.443Z,42.00
2018-04-19T19:13:56.347Z,42.00
2018-04-19T19:16:27.659Z,42.00
2018-04-19T19:19:08.365Z,42.00
2018-04-19T19:21:40.185Z,42.00
2018-04-19T19:24:12.513Z,42.00
2018-04-19T19:26:43.944Z,42.10
2018-04-19T19:29:15.071Z,42.10
2018-04-19T19:31:46.602Z,42.00
2018-04-19T19:34:17.737Z,42.10
2018-04-19T19:36:49.242Z,42.10
2018-04-19T19:39:20.400Z,42.10
2018-04-19T19:41:51.438Z,42.10
2018-04-19T19:44:22.651Z,42.10
2018-04-19T19:46:54.510Z,42.10
2018-04-19T19:49:25.744Z,42.10
2018-04-19T19:51:58.152Z,42.20
2018-04-19T19:54:29.288Z,42.10
2018-04-19T19:57:00.221Z,42.10
2018-04-19T19:59:31.074Z,42.10
2018-04-19T20:02:02.590Z,42.10
2018-04-19T20:04:33.827Z,42.10
2018-04-19T20:07:05.005Z,42.20
2018-04-19T20:09:36.348Z,42.20
2018-04-19T20:12:07.572Z,42.20
2018-04-19T20:14:38.754Z,42.20
2018-04-19T20:17:10.696Z,42.50
2018-04-19T20:19:41.911Z,42.10
2018-04-19T20:22:14.705Z,42.20
2018-04-19T20:24:45.919Z,42.20
2018-04-19T20:27:17.243Z,42.20
2018-04-19T20:29:48.323Z,42.20
2018-04-19T20:32:20.222Z,42.30
2018-04-19T20:34:51.395Z,42.20
2018-04-19T20:37:22.515Z,42.20
2018-04-19T20:39:53.810Z,42.20
2018-04-19T20:42:25.015Z,42.20
2018-04-19T20:44:56.236Z,42.20
2018-04-19T20:47:27.384Z,42.30
2018-04-19T20:49:58.405Z,42.30
2018-04-19T20:52:29.710Z,42.20
2018-04-19T20:55:00.896Z,42.20
2018-04-19T20:57:31.882Z,42.30
2018-04-19T21:00:02.818Z,42.30
2018-04-19T21:02:33.930Z,42.30
2018-04-19T21:05:05.357Z,42.30
2018-04-19T21:07:36.375Z,42.30
2018-04-19T21:10:08.530Z,42.40
2018-04-19T21:12:39.985Z,42.30
2018-04-19T21:15:11.789Z,42.40
2018-04-19T21:17:43.012Z,42.30
2018-04-19T21:20:14.037Z,42.30
2018-04-19T21:22:46.515Z,42.40
2018-04-19T21:25:17.578Z,42.30
2018-04-19T21:27:48.626Z,42.40
2018-04-19T21:30:19.737Z,42.40
2018-04-19T21:32:50.558Z,42.30
2018-04-19T21:35:21.744Z,42.40
2018-04-19T21:37:52.878Z,42.40
2018-04-19T21:40:23.801Z,42.50
2018-04-19T21:42:55.987Z,42.50
2018-04-19T21:45:26.932Z,42.40
2018-04-19T21:47:58.085Z,42.40
2018-04-19T21:50:29.100Z,42.50
2018-04-19T21:52:59.985Z,42.40
2018-04-19T21:55:30.947Z,42.40
2018-04-19T21:58:02.068Z,42.50
2018-04-19T22:00:33.272Z,42.50
2018-04-19T22:03:04.385Z,42.50
2018-04-19T22:05:35.519Z,42.50
2018-04-19T22:08:07.091Z,42.50
2018-04-19T22:10:38.276Z,42.50
2018-04-19T22:13:11.168Z,42.50
2018-04-19T22:15:42.168Z,42.80
2018-04-19T22:18:13.186Z,42.50
2018-04-19T22:20:44.642Z,42.50
2018-04-19T22:23:16.266Z,42.60
2018-04-19T22:25:47.530Z,42.60
2018-04-19T22:28:20.459Z,42.60
2018-04-19T22:30:51.636Z,42.60
2018-04-19T22:33:23.104Z,42.60
2018-04-19T22:35:53.941Z,42.60
2018-04-19T22:38:25.454Z,42.60
2018-04-19T22:40:54.776Z,42.60
2018-04-19T22:43:25.856Z,42.60
2018-04-19T22:45:57.439Z,43.30
2018-04-19T22:48:29.184Z,42.60
2018-04-19T22:51:00.437Z,42.60
2018-04-19T22:53:31.542Z,42.60
2018-04-19T22:56:04.070Z,42.60
2018-04-19T22:58:35.279Z,42.50
2018-04-19T23:01:06.608Z,42.60
2018-04-19T23:03:37.300Z,42.60
2018-04-19T23:06:08.704Z,42.60
2018-04-19T23:08:39.737Z,42.60
2018-04-19T23:11:10.525Z,42.70
2018-04-19T23:13:41.451Z,42.60
2018-04-19T23:16:13.518Z,42.60
2018-04-19T23:18:44.616Z,42.60
2018-04-19T23:21:15.484Z,42.60
2018-04-19T23:23:47.102Z,42.60
2018-04-19T23:26:21.043Z,42.60
2018-04-19T23:28:52.490Z,42.70
2018-04-19T23:31:23.625Z,42.60
2018-04-19T23:33:54.604Z,42.70
2018-04-19T23:36:25.671Z,42.60
2018-04-19T23:38:56.904Z,42.60
2018-04-19T23:41:27.952Z,42.70
2018-04-19T23:43:58.953Z,42.70
2018-04-19T23:46:29.928Z,42.70
2018-04-19T23:49:01.087Z,42.70
2018-04-19T23:51:32.218Z,42.70
2018-04-19T23:54:03.712Z,42.70
2018-04-19T23:56:34.919Z,42.70
2018-04-19T23:59:06.474Z,42.70
